createdAt,value
2023-03-28T00:01:03.611Z,96594.53
2023-03-28T00:03:36.008Z,96596.13
2023-03-28T00:06:04.176Z,96599.66
2023-03-28T00:08:31.569Z,96613.75
2023-03-28T00:11:10.029Z,96602.56
2023-03-28T00:13:38.091Z,96614.44
2023-03-28T00:16:07.098Z,96612.81
2023-03-28T00:18:37.845Z,96613.56
2023-03-28T00:21:08.563Z,96603.31
2023-03-28T00:23:36.156Z,96607.72
2023-03-28T00:26:08.056Z,96606.19
2023-03-28T00:28:35.650Z,96602.44
2023-03-28T00:31:04.016Z,96602.72
2023-03-28T00:33:31.276Z,96597.75
2023-03-28T00:35:58.774Z,96609.41
2023-03-28T00:38:29.383Z,96615.16
2023-03-28T00:40:58.176Z,96613.19
2023-03-28T00:43:39.583Z,96621.41
2023-03-28T00:46:27.077Z,96619.75
2023-03-28T00:49:21.641Z,96611.78
2023-03-28T00:51:52.546Z,96614.78
2023-03-28T00:54:20.654Z,96621.03
2023-03-28T00:56:49.373Z,96626.41
2023-03-28T00:59:18.981Z,96629.47
2023-03-28T01:01:46.882Z,96634.09
2023-03-28T01:04:20.735Z,96632.88
2023-03-28T01:06:52.060Z,96631.25
2023-03-28T01:09:21.480Z,96635.97
2023-03-28T01:11:52.557Z,96629.41
2023-03-28T01:14:21.815Z,96629.88
2023-03-28T01:16:51.852Z,96635.31
2023-03-28T01:19:22.198Z,96627.75
2023-03-28T01:22:02.716Z,96622.25
2023-03-28T01:24:30.709Z,96621.84
2023-03-28T01:27:19.736Z,96622.72
2023-03-28T01:30:07.786Z,96616.97
2023-03-28T01:33:15.127Z,96611.63
2023-03-28T01:36:01.431Z,96620.28
2023-03-28T01:38:28.971Z,96623.75
2023-03-28T01:41:00.447Z,96623.56
2023-03-28T01:43:45.500Z,96625.97
2023-03-28T01:46:19.705Z,96621.38
2023-03-28T01:49:05.263Z,96618.09
2023-03-28T01:51:41.816Z,96614.22
2023-03-28T01:54:18.295Z,96617.25
2023-03-28T01:56:54.541Z,96621.28
2023-03-28T01:59:31.258Z,96619.56
2023-03-28T02:02:37.264Z,96620.72
2023-03-28T02:05:21.347Z,96622.41
2023-03-28T02:07:52.135Z,96625.16
2023-03-28T02:10:26.538Z,96622.88
2023-03-28T02:12:59.673Z,96626.75
2023-03-28T02:15:53.112Z,96629.84
2023-03-28T02:18:51.815Z,96622.53
2023-03-28T02:21:47.779Z,96629.13
2023-03-28T02:24:28.544Z,96626.34
2023-03-28T02:27:11.642Z,96628.72
2023-03-28T02:29:49.729Z,96633.31
2023-03-28T02:32:22.152Z,96626.34
2023-03-28T02:34:50.580Z,96625.53
2023-03-28T02:37:33.162Z,96638.97
2023-03-28T02:40:08.508Z,96646.69
2023-03-28T02:42:35.867Z,96641.59
2023-03-28T02:45:09.418Z,96638.88
2023-03-28T02:47:39.435Z,96647.31
2023-03-28T02:50:07.175Z,96638.84
2023-03-28T02:52:50.884Z,96639.97
2023-03-28T02:55:25.957Z,96641.84
2023-03-28T02:58:02.217Z,96643.38
2023-03-28T03:00:29.982Z,96646.78
2023-03-28T03:02:57.396Z,96651.28
2023-03-28T03:05:24.854Z,96641.13
2023-03-28T03:07:52.424Z,96643.38
2023-03-28T03:10:20.438Z,96641.38
2023-03-28T03:12:48.301Z,96637.06
2023-03-28T03:15:17.336Z,96630.06
2023-03-28T03:17:53.893Z,96634.66
2023-03-28T03:20:26.736Z,96634.13
2023-03-28T03:22:54.826Z,96639.19
2023-03-28T03:25:22.102Z,96629.81
2023-03-28T03:27:56.093Z,96630.59
2023-03-28T03:30:23.729Z,96626.63
2023-03-28T03:33:11.647Z,96632.38
2023-03-28T03:35:48.133Z,96636.91
2023-03-28T03:38:16.600Z,96643.31
2023-03-28T03:40:43.847Z,96634.69
2023-03-28T03:43:11.473Z,96637.66
2023-03-28T03:45:40.979Z,96638.25
2023-03-28T03:48:09.575Z,96627.94
2023-03-28T03:50:37.778Z,96639.09
2023-03-28T03:53:11.887Z,96636.75
2023-03-28T03:55:47.207Z,96628.22
2023-03-28T03:58:14.449Z,96639.25
2023-03-28T04:00:45.028Z,96636.53
2023-03-28T04:03:27.345Z,96634.91
2023-03-28T04:05:58.252Z,96637.56
2023-03-28T04:08:25.861Z,96630.59
2023-03-28T04:10:53.153Z,96621.59
2023-03-28T04:13:20.823Z,96629.50
2023-03-28T04:15:53.679Z,96637.00
2023-03-28T04:18:37.692Z,96640.38
2023-03-28T04:21:05.889Z,96651.28
2023-03-28T04:23:44.051Z,96644.78
2023-03-28T04:26:29.220Z,96639.03
2023-03-28T04:29:04.432Z,96635.66
2023-03-28T04:31:36.212Z,96644.22
2023-03-28T04:34:25.861Z,96643.50
2023-03-28T04:37:15.715Z,96630.69
2023-03-28T04:39:54.411Z,96628.66
2023-03-28T04:42:45.761Z,96626.59
2023-03-28T04:45:17.914Z,96629.59
2023-03-28T04:47:47.101Z,96632.78
2023-03-28T04:50:17.206Z,96626.97
2023-03-28T04:52:44.963Z,96633.75
2023-03-28T04:55:12.633Z,96640.06
2023-03-28T04:57:40.650Z,96636.78
2023-03-28T05:00:10.769Z,96638.41
2023-03-28T05:03:07.358Z,96648.97
2023-03-28T05:05:41.745Z,96640.13
2023-03-28T05:08:13.415Z,96635.06
2023-03-28T05:10:41.388Z,96648.59
2023-03-28T05:13:10.482Z,96645.69
2023-03-28T05:15:46.938Z,96644.50
2023-03-28T05:18:36.135Z,96650.41
2023-03-28T05:21:04.109Z,96640.81
2023-03-28T05:23:31.382Z,96648.31
2023-03-28T05:26:00.048Z,96645.19
2023-03-28T05:28:31.721Z,96636.41
2023-03-28T05:31:00.584Z,96637.28
2023-03-28T05:33:28.130Z,96637.56
2023-03-28T05:35:55.624Z,96645.66
2023-03-28T05:38:23.413Z,96638.03
2023-03-28T05:40:56.693Z,96639.63
2023-03-28T05:43:24.048Z,96629.53
2023-03-28T05:45:51.641Z,96631.41
2023-03-28T05:48:22.044Z,96636.16
2023-03-28T05:50:52.400Z,96636.09
2023-03-28T05:53:20.539Z,96635.84
2023-03-28T05:55:49.034Z,96631.00
2023-03-28T05:58:17.817Z,96631.75
2023-03-28T06:00:45.089Z,96621.81
2023-03-28T06:03:16.614Z,96617.75
2023-03-28T06:05:46.381Z,96619.88
2023-03-28T06:08:20.496Z,96610.56
2023-03-28T06:10:48.896Z,96614.94
2023-03-28T06:13:20.961Z,96600.66
2023-03-28T06:15:48.826Z,96612.06
2023-03-28T06:18:17.722Z,96596.22
2023-03-28T06:20:48.603Z,96597.13
2023-03-28T06:23:16.233Z,96588.81
2023-03-28T06:25:44.255Z,96583.88
2023-03-28T06:28:14.450Z,96581.22
2023-03-28T06:31:14.339Z,96568.28
2023-03-28T06:33:43.178Z,96574.16
2023-03-28T06:36:11.577Z,96566.78
2023-03-28T06:38:39.294Z,96559.09
2023-03-28T06:41:07.407Z,96557.22
2023-03-28T06:43:36.897Z,96574.91
2023-03-28T06:46:08.636Z,96564.00
2023-03-28T06:48:39.793Z,96561.41
2023-03-28T06:51:44.833Z,96565.06
2023-03-28T06:54:12.410Z,96564.66
2023-03-28T06:56:39.780Z,96548.66
2023-03-28T06:59:07.285Z,96557.94
2023-03-28T07:01:35.583Z,96557.50
2023-03-28T07:04:07.026Z,96575.84
2023-03-28T07:06:35.741Z,96569.81
2023-03-28T07:09:05.485Z,96564.50
2023-03-28T07:11:39.983Z,96565.81
2023-03-28T07:14:07.264Z,96553.44
2023-03-28T07:16:34.603Z,96562.22
2023-03-28T07:19:01.895Z,96552.16
2023-03-28T07:21:33.123Z,96559.41
2023-03-28T07:24:03.322Z,96564.63
2023-03-28T07:26:42.914Z,96557.25
2023-03-28T07:29:10.263Z,96559.19
2023-03-28T07:31:38.085Z,96561.47
2023-03-28T07:34:05.416Z,96560.22
2023-03-28T07:36:32.880Z,96558.72
2023-03-28T07:39:09.649Z,96562.25
2023-03-28T07:41:38.091Z,96556.72
2023-03-28T07:44:05.317Z,96558.00
2023-03-28T07:46:32.726Z,96575.16
2023-03-28T07:49:01.128Z,96561.53
2023-03-28T07:51:29.341Z,96575.38
2023-03-28T07:53:56.692Z,96578.66
2023-03-28T07:56:24.050Z,96571.63
2023-03-28T07:59:10.516Z,96577.59
2023-03-28T08:01:38.530Z,96591.59
2023-03-28T08:04:06.491Z,96582.19
2023-03-28T08:06:52.571Z,96571.66
2023-03-28T08:09:20.861Z,96564.78
2023-03-28T08:11:54.269Z,96568.41
2023-03-28T08:14:21.508Z,96586.59
2023-03-28T08:16:49.218Z,96582.66
2023-03-28T08:19:16.790Z,96585.75
2023-03-28T08:22:04.023Z,96601.81
2023-03-28T08:24:37.844Z,96592.50
2023-03-28T08:27:12.260Z,96590.72
2023-03-28T08:29:41.408Z,96597.84
2023-03-28T08:32:10.001Z,96591.16
2023-03-28T08:34:38.336Z,96594.78
2023-03-28T08:37:12.191Z,96594.59
2023-03-28T08:39:42.943Z,96603.34
2023-03-28T08:42:22.878Z,96594.50
2023-03-28T08:45:12.718Z,96583.41
2023-03-28T08:47:48.147Z,96584.81
2023-03-28T08:50:17.580Z,96586.44
2023-03-28T08:52:47.544Z,96594.25
2023-03-28T08:55:24.600Z,96596.44
2023-03-28T08:57:54.452Z,96590.94
2023-03-28T09:00:30.180Z,96583.59
2023-03-28T09:02:58.605Z,96581.06
2023-03-28T09:05:26.873Z,96588.84
2023-03-28T09:08:04.720Z,96594.59
2023-03-28T09:10:56.135Z,96594.81
2023-03-28T09:13:23.504Z,96598.03
2023-03-28T09:16:01.496Z,96590.06
2023-03-28T09:18:44.989Z,96606.16
2023-03-28T09:21:18.439Z,96605.66
2023-03-28T09:23:49.664Z,96614.56
2023-03-28T09:26:32.653Z,96611.69
2023-03-28T09:29:06.585Z,96607.44
2023-03-28T09:31:38.706Z,96605.34
2023-03-28T09:34:07.516Z,96612.22
2023-03-28T09:36:49.557Z,96594.19
2023-03-28T09:39:37.172Z,96612.69
2023-03-28T09:42:16.469Z,96614.06
2023-03-28T09:45:12.739Z,96600.91
2023-03-28T09:48:19.038Z,96608.44
2023-03-28T09:50:47.680Z,96610.78
2023-03-28T09:53:22.075Z,96603.66
2023-03-28T09:56:03.354Z,96619.84
2023-03-28T09:58:48.097Z,96622.88
2023-03-28T10:01:28.836Z,96619.84
2023-03-28T10:04:16.100Z,96627.19
2023-03-28T10:07:04.667Z,96630.56
2023-03-28T10:09:32.569Z,96625.06
2023-03-28T10:12:10.275Z,96635.81
2023-03-28T10:14:40.155Z,96645.94
2023-03-28T10:17:24.036Z,96656.66
2023-03-28T10:19:52.586Z,96662.47
2023-03-28T10:22:25.278Z,96673.16
2023-03-28T10:24:54.231Z,96658.69
2023-03-28T10:27:32.228Z,96659.44
2023-03-28T10:30:09.674Z,96657.91
2023-03-28T10:32:38.226Z,96654.72
2023-03-28T10:35:30.330Z,96669.19
2023-03-28T10:38:24.102Z,96676.38
2023-03-28T10:41:26.081Z,96669.38
2023-03-28T10:44:33.147Z,96664.19
2023-03-28T10:47:15.144Z,96658.72
2023-03-28T10:49:54.445Z,96667.09
2023-03-28T10:52:34.225Z,96672.56
2023-03-28T10:55:13.893Z,96669.09
2023-03-28T10:58:15.136Z,96684.16
2023-03-28T11:00:59.789Z,96680.63
2023-03-28T11:03:39.449Z,96693.28
2023-03-28T11:06:12.435Z,96702.56
2023-03-28T11:08:42.985Z,96708.22
2023-03-28T11:11:32.144Z,96684.16
2023-03-28T11:14:11.158Z,96710.66
2023-03-28T11:16:52.619Z,96705.94
2023-03-28T11:19:56.706Z,96710.06
2023-03-28T11:22:39.140Z,96712.03
2023-03-28T11:25:07.192Z,96716.00
2023-03-28T11:28:20.930Z,96721.91
2023-03-28T11:30:56.458Z,96719.22
2023-03-28T11:33:55.978Z,96714.22
2023-03-28T11:36:29.715Z,96726.63
2023-03-28T11:39:06.838Z,96736.22
2023-03-28T11:41:37.407Z,96723.91
2023-03-28T11:44:29.362Z,96727.88
2023-03-28T11:46:56.780Z,96734.09
2023-03-28T11:49:29.791Z,96736.94
2023-03-28T11:52:00.160Z,96743.94
2023-03-28T11:54:29.040Z,96751.84
2023-03-28T11:56:59.425Z,96739.00
2023-03-28T11:59:44.049Z,96751.31
2023-03-28T12:02:47.859Z,96754.38
2023-03-28T12:05:25.460Z,96757.72
2023-03-28T12:07:58.552Z,96760.38
2023-03-28T12:10:29.513Z,96755.53
2023-03-28T12:12:58.204Z,96764.38
2023-03-28T12:15:38.185Z,96766.47
2023-03-28T12:18:33.190Z,96772.06
2023-03-28T12:21:07.564Z,96783.38
2023-03-28T12:23:40.584Z,96786.13
2023-03-28T12:26:49.172Z,96788.13
2023-03-28T12:29:17.672Z,96791.59
2023-03-28T12:31:51.335Z,96783.50
2023-03-28T12:34:22.414Z,96796.94
2023-03-28T12:37:29.290Z,96804.91
2023-03-28T12:40:14.727Z,96795.94
2023-03-28T12:42:43.616Z,96814.81
2023-03-28T12:45:29.769Z,96784.78
2023-03-28T12:48:02.719Z,96812.28
2023-03-28T12:50:37.984Z,96787.44
2023-03-28T12:53:11.100Z,96804.34
2023-03-28T12:55:45.833Z,96802.16
2023-03-28T12:58:20.526Z,96805.31
2023-03-28T13:01:03.249Z,96804.66
2023-03-28T13:03:42.690Z,96802.13
2023-03-28T13:06:25.276Z,96807.38
2023-03-28T13:09:02.233Z,96817.19
2023-03-28T13:11:36.633Z,96828.06
2023-03-28T13:14:22.577Z,96825.22
2023-03-28T13:16:49.825Z,96829.63
2023-03-28T13:19:19.754Z,96827.53
2023-03-28T13:21:50.266Z,96825.66
2023-03-28T13:24:27.052Z,96828.03
2023-03-28T13:26:59.027Z,96841.84
2023-03-28T13:29:43.914Z,96834.50
2023-03-28T13:32:18.957Z,96835.69
2023-03-28T13:35:00.202Z,96835.81
2023-03-28T13:37:39.118Z,96836.72
2023-03-28T13:40:26.592Z,96840.63
2023-03-28T13:43:00.052Z,96832.81
2023-03-28T13:45:28.420Z,96832.13
2023-03-28T13:48:09.987Z,96839.59
2023-03-28T13:50:40.372Z,96836.19
2023-03-28T13:53:07.735Z,96843.19
2023-03-28T13:55:35.072Z,96851.41
2023-03-28T13:58:02.363Z,96844.09
2023-03-28T14:00:31.293Z,96854.31
2023-03-28T14:03:02.457Z,96860.31
2023-03-28T14:05:31.409Z,96863.75
2023-03-28T14:08:04.017Z,96860.88
2023-03-28T14:10:36.341Z,96872.81
2023-03-28T14:13:06.420Z,96863.53
2023-03-28T14:15:36.426Z,96869.19
2023-03-28T14:18:04.043Z,96872.91
2023-03-28T14:20:32.813Z,96874.97
2023-03-28T14:23:01.444Z,96883.22
2023-03-28T14:25:29.352Z,96882.97
2023-03-28T14:27:57.340Z,96887.72
2023-03-28T14:30:26.418Z,96885.53
2023-03-28T14:33:23.216Z,96895.88
2023-03-28T14:35:58.380Z,96903.97
2023-03-28T14:38:39.796Z,96895.44
2023-03-28T14:41:08.846Z,96898.59
2023-03-28T14:43:37.517Z,96905.22
2023-03-28T14:46:06.799Z,96908.00
2023-03-28T14:48:34.917Z,96919.59
2023-03-28T14:51:04.260Z,96919.22
2023-03-28T14:53:35.944Z,96922.84
2023-03-28T14:56:09.133Z,96931.41
2023-03-28T14:58:38.685Z,96934.13
2023-03-28T15:01:07.535Z,96921.00
2023-03-28T15:03:39.411Z,96928.31
2023-03-28T15:06:07.742Z,96928.03
2023-03-28T15:08:38.059Z,96929.63
2023-03-28T15:11:07.596Z,96930.03
2023-03-28T15:13:34.911Z,96937.44
2023-03-28T15:16:04.701Z,96937.44
2023-03-28T15:18:34.446Z,96943.72
2023-03-28T15:21:02.941Z,96948.72
2023-03-28T15:23:43.537Z,96954.56
2023-03-28T15:26:18.048Z,96951.50
2023-03-28T15:28:47.062Z,96947.66
2023-03-28T15:31:29.521Z,96948.13
2023-03-28T15:34:14.791Z,96950.13
2023-03-28T15:36:54.436Z,96953.34
2023-03-28T15:39:35.411Z,96939.34
2023-03-28T15:42:23.879Z,96952.59
2023-03-28T15:44:57.031Z,96951.88
2023-03-28T15:47:26.242Z,96949.16
2023-03-28T15:50:11.404Z,96960.31
2023-03-28T15:52:55.816Z,96959.28
2023-03-28T15:55:24.152Z,96967.75
2023-03-28T15:57:51.419Z,96971.31
2023-03-28T16:00:37.634Z,96961.75
2023-03-28T16:03:17.006Z,96970.28
2023-03-28T16:05:50.764Z,96976.59
2023-03-28T16:08:26.544Z,96968.41
2023-03-28T16:10:55.542Z,96978.91
2023-03-28T16:13:35.006Z,96985.94
2023-03-28T16:16:29.132Z,96985.25
2023-03-28T16:19:21.972Z,96994.94
2023-03-28T16:21:49.384Z,97001.22
2023-03-28T16:24:16.989Z,97005.53
2023-03-28T16:26:44.412Z,96998.97
2023-03-28T16:29:11.904Z,97002.09
2023-03-28T16:31:39.476Z,96995.88
2023-03-28T16:34:09.323Z,96994.41
2023-03-28T16:36:37.979Z,96995.13
2023-03-28T16:39:25.550Z,96992.50
2023-03-28T16:41:53.061Z,97009.59
2023-03-28T16:44:20.621Z,97013.47
2023-03-28T16:46:57.392Z,97024.38
2023-03-28T16:49:26.903Z,97026.00
2023-03-28T16:51:55.239Z,97033.75
2023-03-28T16:54:23.023Z,97040.38
2023-03-28T16:56:58.236Z,97050.09
2023-03-28T16:59:26.339Z,97054.38
2023-03-28T17:01:54.048Z,97063.75
2023-03-28T17:04:21.679Z,97067.22
2023-03-28T17:06:49.217Z,97071.91
2023-03-28T17:09:16.758Z,97070.75
2023-03-28T17:11:44.178Z,97080.84
2023-03-28T17:14:11.722Z,97085.53
2023-03-28T17:16:40.757Z,97085.16
2023-03-28T17:19:11.665Z,97087.16
2023-03-28T17:21:39.492Z,97094.16
2023-03-28T17:24:11.636Z,97093.06
2023-03-28T17:27:01.286Z,97098.50
2023-03-28T17:29:28.868Z,97096.97
2023-03-28T17:31:56.372Z,97100.88
2023-03-28T17:34:24.210Z,97098.16
2023-03-28T17:36:53.686Z,97105.94
2023-03-28T17:39:22.004Z,97110.63
2023-03-28T17:41:49.332Z,97109.84
2023-03-28T17:44:17.010Z,97118.06
2023-03-28T17:46:45.920Z,97114.19
2023-03-28T17:49:14.038Z,97116.56
2023-03-28T17:51:42.560Z,97129.72
2023-03-28T17:54:12.487Z,97128.56
2023-03-28T17:56:40.239Z,97132.09
2023-03-28T17:59:07.762Z,97138.28
2023-03-28T18:01:35.273Z,97141.78
2023-03-28T18:04:02.924Z,97146.03
2023-03-28T18:06:56.457Z,97150.31
2023-03-28T18:09:23.891Z,97156.13
2023-03-28T18:11:51.637Z,97155.75
2023-03-28T18:14:18.895Z,97157.38
2023-03-28T18:16:46.383Z,97165.50
2023-03-28T18:19:17.986Z,97181.38
2023-03-28T18:21:46.037Z,97185.25
2023-03-28T18:24:13.391Z,97189.88
2023-03-28T18:26:40.895Z,97197.63
2023-03-28T18:29:08.186Z,97204.59
2023-03-28T18:31:37.101Z,97207.72
2023-03-28T18:34:05.463Z,97209.25
2023-03-28T18:36:36.273Z,97213.91
2023-03-28T18:39:10.918Z,97208.50
2023-03-28T18:41:38.119Z,97217.81
2023-03-28T18:44:05.595Z,97226.31
2023-03-28T18:46:34.177Z,97226.69
2023-03-28T18:49:02.178Z,97230.59
2023-03-28T18:51:29.487Z,97231.34
2023-03-28T18:53:57.479Z,97237.16
2023-03-28T18:56:24.766Z,97236.00
2023-03-28T18:58:52.586Z,97239.47
2023-03-28T19:01:21.045Z,97245.69
2023-03-28T19:03:50.069Z,97249.97
2023-03-28T19:06:17.418Z,97249.97
2023-03-28T19:08:45.215Z,97258.47
2023-03-28T19:11:14.100Z,97268.91
2023-03-28T19:13:41.966Z,97267.34
2023-03-28T19:16:10.958Z,97268.16
2023-03-28T19:18:39.330Z,97276.63
2023-03-28T19:21:07.276Z,97270.47
2023-03-28T19:23:37.084Z,97267.75
2023-03-28T19:26:08.560Z,97280.91
2023-03-28T19:28:36.252Z,97281.66
2023-03-28T19:31:05.397Z,97293.28
2023-03-28T19:33:33.004Z,97282.84
2023-03-28T19:36:00.684Z,97280.53
2023-03-28T19:38:31.039Z,97290.56
2023-03-28T19:40:59.108Z,97290.19
2023-03-28T19:43:26.989Z,97292.13
2023-03-28T19:45:54.444Z,97295.19
2023-03-28T19:48:21.760Z,97299.81
2023-03-28T19:50:50.696Z,97301.75
2023-03-28T19:53:18.003Z,97300.59
2023-03-28T19:55:50.734Z,97316.06
2023-03-28T19:58:17.961Z,97312.97
2023-03-28T20:00:45.326Z,97318.38
2023-03-28T20:03:12.733Z,97321.06
2023-03-28T20:05:46.553Z,97323.00
2023-03-28T20:08:13.773Z,97333.44
2023-03-28T20:10:44.648Z,97331.53
2023-03-28T20:13:11.954Z,97340.41
2023-03-28T20:15:41.718Z,97335.38
2023-03-28T20:18:30.038Z,97348.91
2023-03-28T20:20:58.567Z,97355.47
2023-03-28T20:23:27.290Z,97355.88
2023-03-28T20:25:54.963Z,97369.75
2023-03-28T20:28:25.019Z,97365.13
2023-03-28T20:30:53.822Z,97372.09
2023-03-28T20:33:21.354Z,97373.22
2023-03-28T20:35:55.998Z,97378.25
2023-03-28T20:38:23.754Z,97377.47
2023-03-28T20:40:51.405Z,97391.38
2023-03-28T20:43:21.560Z,97386.72
2023-03-28T20:45:54.295Z,97391.38
2023-03-28T20:48:26.166Z,97399.06
2023-03-28T20:50:56.202Z,97403.69
2023-03-28T20:53:23.444Z,97409.50
2023-03-28T20:55:58.833Z,97412.94
2023-03-28T20:58:26.160Z,97432.22
2023-03-28T21:00:57.392Z,97422.53
2023-03-28T21:03:45.063Z,97426.38
2023-03-28T21:06:13.300Z,97439.88
2023-03-28T21:08:40.527Z,97432.88
2023-03-28T21:11:08.432Z,97447.91
2023-03-28T21:13:35.984Z,97453.66
2023-03-28T21:16:03.327Z,97454.38
2023-03-28T21:18:30.576Z,97449.72
2023-03-28T21:20:58.623Z,97462.84
2023-03-28T21:23:25.889Z,97460.50
2023-03-28T21:25:53.675Z,97456.63
2023-03-28T21:28:20.987Z,97468.56
2023-03-28T21:30:58.341Z,97468.19
2023-03-28T21:33:25.679Z,97479.72
2023-03-28T21:35:53.001Z,97483.63
2023-03-28T21:38:20.539Z,97501.69
2023-03-28T21:40:48.124Z,97498.97
2023-03-28T21:43:15.788Z,97510.16
2023-03-28T21:45:49.558Z,97520.53
2023-03-28T21:48:17.267Z,97514.75
2023-03-28T21:50:53.659Z,97521.22
2023-03-28T21:53:21.624Z,97525.88
2023-03-28T21:55:48.888Z,97536.69
2023-03-28T21:58:16.173Z,97537.84
2023-03-28T22:00:43.622Z,97549.44
2023-03-28T22:03:11.328Z,97553.63
2023-03-28T22:05:43.049Z,97556.69
2023-03-28T22:08:12.578Z,97555.53
2023-03-28T22:10:51.705Z,97565.16
2023-03-28T22:13:19.352Z,97565.19
2023-03-28T22:15:46.818Z,97569.44
2023-03-28T22:18:14.160Z,97577.50
2023-03-28T22:20:43.950Z,97563.56
2023-03-28T22:23:11.753Z,97572.78
2023-03-28T22:25:39.261Z,97583.25
2023-03-28T22:28:07.869Z,97579.75
2023-03-28T22:30:36.277Z,97584.75
2023-03-28T22:33:04.480Z,97595.16
2023-03-28T22:35:34.032Z,97585.47
2023-03-28T22:38:01.746Z,97597.38
2023-03-28T22:40:29.123Z,97616.63
2023-03-28T22:42:57.170Z,97616.53
2023-03-28T22:45:24.946Z,97636.84
2023-03-28T22:47:52.618Z,97649.84
2023-03-28T22:50:20.032Z,97655.50
2023-03-28T22:52:50.409Z,97656.50
2023-03-28T22:55:17.930Z,97666.94
2023-03-28T22:57:45.635Z,97669.34
2023-03-28T23:00:13.874Z,97672.78
2023-03-28T23:02:41.853Z,97684.31
2023-03-28T23:05:09.802Z,97690.53
2023-03-28T23:07:37.747Z,97699.03
2023-03-28T23:10:05.880Z,97696.06
2023-03-28T23:12:33.093Z,97709.66
2023-03-28T23:15:00.413Z,97708.72
2023-03-28T23:17:28.677Z,97717.78
2023-03-28T23:19:56.071Z,97721.28
2023-03-28T23:22:23.977Z,97729.75
2023-03-28T23:24:51.841Z,97740.88
2023-03-28T23:27:19.373Z,97739.31
2023-03-28T23:29:47.011Z,97750.31
2023-03-28T23:32:14.216Z,97763.78
2023-03-28T23:34:41.390Z,97760.50
2023-03-28T23:37:10.290Z,97765.59
2023-03-28T23:39:38.444Z,97775.63
2023-03-28T23:42:06.033Z,97783.72
2023-03-28T23:44:34.372Z,97795.38
2023-03-28T23:47:01.653Z,97815.72
2023-03-28T23:49:28.931Z,97796.03
2023-03-28T23:51:56.588Z,97809.72
2023-03-28T23:54:25.630Z,97820.25
2023-03-28T23:56:53.046Z,97808.50
2023-03-28T23:59:20.267Z,97816.34
